createdAt,value
2022-08-12T00:00:48.521Z,2.00
2022-08-12T00:03:34.221Z,1.67
2022-08-12T00:06:20.118Z,1.92
2022-08-12T00:09:05.390Z,1.80
2022-08-12T00:11:50.855Z,1.73
2022-08-12T00:14:39.026Z,1.52
2022-08-12T00:17:24.486Z,1.73
2022-08-12T00:20:10.411Z,1.90
2022-08-12T00:22:59.740Z,1.70
2022-08-12T00:26:21.185Z,1.73
2022-08-12T00:29:03.357Z,1.85
2022-08-12T00:31:51.493Z,1.67
2022-08-12T00:34:36.826Z,1.83
2022-08-12T00:37:24.867Z,2.08
2022-08-12T00:40:13.249Z,1.60
2022-08-12T00:42:41.265Z,1.50
2022-08-12T00:45:11.439Z,1.58
2022-08-12T00:47:41.155Z,1.60
2022-08-12T00:50:12.577Z,1.85
2022-08-12T00:52:41.054Z,1.70
2022-08-12T00:55:10.610Z,1.90
2022-08-12T00:57:37.480Z,1.60
2022-08-12T01:00:08.843Z,1.73
2022-08-12T01:02:37.624Z,1.75
2022-08-12T01:05:25.108Z,1.65
2022-08-12T01:08:11.329Z,1.88
2022-08-12T01:10:59.313Z,1.65
2022-08-12T01:13:29.155Z,1.65
2022-08-12T01:16:00.763Z,1.50
2022-08-12T01:18:32.671Z,1.55
2022-08-12T01:21:21.077Z,1.70
2022-08-12T01:23:59.412Z,1.60
2022-08-12T01:26:47.034Z,1.70
2022-08-12T01:29:15.710Z,1.70
2022-08-12T01:31:43.543Z,1.90
2022-08-12T01:34:35.314Z,1.73
2022-08-12T01:37:05.107Z,1.45
2022-08-12T01:40:34.533Z,1.55
2022-08-12T01:42:42.864Z,1.70
2022-08-12T01:45:10.302Z,1.65
2022-08-12T01:48:03.862Z,1.63
2022-08-12T01:50:37.838Z,1.50
2022-08-12T01:53:06.572Z,1.70
2022-08-12T01:55:34.841Z,1.73
2022-08-12T01:58:04.571Z,1.55
2022-08-12T02:00:55.392Z,1.58
2022-08-12T02:04:00.103Z,1.48
2022-08-12T02:06:51.185Z,1.50
2022-08-12T02:09:39.697Z,1.70
2022-08-12T02:12:13.552Z,1.83
2022-08-12T02:14:46.375Z,1.50
2022-08-12T02:17:13.428Z,1.48
2022-08-12T02:19:49.884Z,1.60
2022-08-12T02:22:26.903Z,1.63
2022-08-12T02:24:58.293Z,1.58
2022-08-12T02:27:28.166Z,2.05
2022-08-12T02:29:58.405Z,1.73
2022-08-12T02:32:25.221Z,1.63
2022-08-12T02:34:54.636Z,1.80
2022-08-12T02:37:24.120Z,1.70
2022-08-12T02:39:52.055Z,1.50
2022-08-12T02:42:20.749Z,1.73
2022-08-12T02:44:51.130Z,1.67
2022-08-12T02:47:58.494Z,1.70
2022-08-12T02:50:08.678Z,1.70
2022-08-12T02:52:35.963Z,1.85
2022-08-12T02:55:10.865Z,1.80
2022-08-12T02:57:37.586Z,1.88
2022-08-12T03:00:07.884Z,1.52
2022-08-12T03:02:35.722Z,1.70
2022-08-12T03:05:04.049Z,1.65
2022-08-12T03:07:56.012Z,1.50
2022-08-12T03:10:37.148Z,1.35
2022-08-12T03:13:07.444Z,1.50
2022-08-12T03:15:37.458Z,1.30
2022-08-12T03:18:24.090Z,1.70
2022-08-12T03:20:53.854Z,1.63
2022-08-12T03:23:30.233Z,1.67
2022-08-12T03:25:59.122Z,1.80
2022-08-12T03:28:44.986Z,1.50
2022-08-12T03:31:11.831Z,1.33
2022-08-12T03:33:39.987Z,1.80
2022-08-12T03:36:07.808Z,1.45
2022-08-12T03:38:40.597Z,1.52
2022-08-12T03:41:35.175Z,1.52
2022-08-12T03:44:25.819Z,1.58
2022-08-12T03:47:26.696Z,1.35
2022-08-12T03:50:12.229Z,1.50
2022-08-12T03:52:57.824Z,1.52
2022-08-12T03:55:42.915Z,1.42
2022-08-12T03:58:28.388Z,1.67
2022-08-12T04:00:58.925Z,1.48
2022-08-12T04:03:44.337Z,1.70
2022-08-12T04:06:11.148Z,1.63
2022-08-12T04:08:39.021Z,1.50
2022-08-12T04:11:29.138Z,1.27
2022-08-12T04:14:14.555Z,1.38
2022-08-12T04:16:41.383Z,1.42
2022-08-12T04:19:08.207Z,1.50
2022-08-12T04:21:36.531Z,1.85
2022-08-12T04:24:09.809Z,1.30
2022-08-12T04:26:37.023Z,1.73
2022-08-12T04:29:03.928Z,1.45
2022-08-12T04:31:32.080Z,1.70
2022-08-12T04:34:02.369Z,1.55
2022-08-12T04:36:32.244Z,1.65
2022-08-12T04:38:59.868Z,1.67
2022-08-12T04:41:27.765Z,1.25
2022-08-12T04:44:02.150Z,1.83
2022-08-12T04:46:33.614Z,1.60
2022-08-12T04:49:02.935Z,1.40
2022-08-12T04:51:29.817Z,1.65
2022-08-12T04:53:59.398Z,1.60
2022-08-12T04:56:28.522Z,1.35
2022-08-12T04:59:02.399Z,1.50
2022-08-12T05:01:31.324Z,1.45
2022-08-12T05:03:58.220Z,1.48
2022-08-12T05:06:27.046Z,1.58
2022-08-12T05:08:55.112Z,1.50
2022-08-12T05:11:23.217Z,1.45
2022-08-12T05:13:50.411Z,1.48
2022-08-12T05:16:19.840Z,1.52
2022-08-12T05:18:58.903Z,1.45
2022-08-12T05:21:26.630Z,1.63
2022-08-12T05:23:55.002Z,1.80
2022-08-12T05:26:22.938Z,1.52
2022-08-12T05:28:50.191Z,1.73
2022-08-12T05:31:47.858Z,1.52
2022-08-12T05:34:06.060Z,1.73
2022-08-12T05:36:33.019Z,1.55
2022-08-12T05:38:59.997Z,1.83
2022-08-12T05:41:27.734Z,1.40
2022-08-12T05:43:55.755Z,1.55
2022-08-12T05:46:23.625Z,1.75
2022-08-12T05:48:51.353Z,1.83
2022-08-12T05:51:19.057Z,1.35
2022-08-12T05:53:45.711Z,1.60
2022-08-12T05:56:19.830Z,1.40
2022-08-12T05:58:47.337Z,1.95
2022-08-12T06:02:10.197Z,1.75
2022-08-12T06:04:01.766Z,1.52
2022-08-12T06:06:29.721Z,1.65
2022-08-12T06:08:56.526Z,2.05
2022-08-12T06:11:23.877Z,1.90
2022-08-12T06:13:54.038Z,1.98
2022-08-12T06:16:22.324Z,1.50
2022-08-12T06:18:49.440Z,1.88
2022-08-12T06:21:17.704Z,1.70
2022-08-12T06:23:45.558Z,1.55
2022-08-12T06:26:14.412Z,1.83
2022-08-12T06:28:42.323Z,1.45
2022-08-12T06:31:26.637Z,1.52
2022-08-12T06:34:52.861Z,1.60
2022-08-12T06:36:42.978Z,1.60
2022-08-12T06:39:15.099Z,1.30
2022-08-12T06:42:05.192Z,1.40
2022-08-12T06:44:47.120Z,1.83
2022-08-12T06:47:19.977Z,1.58
2022-08-12T06:49:46.894Z,1.70
2022-08-12T06:52:13.600Z,1.60
2022-08-12T06:54:46.007Z,1.48
2022-08-12T06:58:06.460Z,1.30
2022-08-12T06:59:59.903Z,1.60
2022-08-12T07:02:27.598Z,1.27
2022-08-12T07:04:54.396Z,1.40
2022-08-12T07:07:23.845Z,1.63
2022-08-12T07:10:06.983Z,1.30
2022-08-12T07:12:35.115Z,1.20
2022-08-12T07:15:02.322Z,1.33
2022-08-12T07:17:36.439Z,1.10
2022-08-12T07:20:29.968Z,1.33
2022-08-12T07:22:59.239Z,1.38
2022-08-12T07:25:40.891Z,1.70
2022-08-12T07:28:16.475Z,1.63
2022-08-12T07:30:45.217Z,1.50
2022-08-12T07:33:13.130Z,1.10
2022-08-12T07:35:48.557Z,1.35
2022-08-12T07:38:28.981Z,1.33
2022-08-12T07:40:59.653Z,1.73
2022-08-12T07:43:27.514Z,1.30
2022-08-12T07:45:55.287Z,0.82
2022-08-12T07:48:23.234Z,1.30
2022-08-12T07:50:51.078Z,1.20
2022-08-12T07:53:17.745Z,1.17
2022-08-12T07:55:44.691Z,1.20
2022-08-12T07:58:11.442Z,1.27
2022-08-12T08:00:40.370Z,1.02
2022-08-12T08:03:08.760Z,1.17
2022-08-12T08:05:46.684Z,1.10
2022-08-12T08:08:14.422Z,1.23
2022-08-12T08:10:41.807Z,1.08
2022-08-12T08:13:11.143Z,1.20
2022-08-12T08:16:01.894Z,1.25
2022-08-12T08:18:29.050Z,0.98
2022-08-12T08:20:56.704Z,1.15
2022-08-12T08:23:46.463Z,0.90
2022-08-12T08:26:16.210Z,1.10
2022-08-12T08:28:43.478Z,0.85
2022-08-12T08:31:10.262Z,0.90
2022-08-12T08:34:09.533Z,0.73
2022-08-12T08:36:24.300Z,1.27
2022-08-12T08:38:55.951Z,0.82
2022-08-12T08:42:16.428Z,0.85
2022-08-12T08:44:31.945Z,1.00
2022-08-12T08:46:58.720Z,1.00
2022-08-12T08:49:25.782Z,0.98
2022-08-12T08:51:52.488Z,0.80
2022-08-12T08:54:19.102Z,0.80
2022-08-12T08:56:50.518Z,0.80
2022-08-12T08:59:19.404Z,0.73
2022-08-12T09:01:47.024Z,0.82
2022-08-12T09:05:08.475Z,0.88
2022-08-12T09:10:02.570Z,0.70
2022-08-12T09:12:55.271Z,0.70
2022-08-12T09:15:35.136Z,0.80
2022-08-12T09:18:03.600Z,0.90
2022-08-12T09:20:33.813Z,0.73
2022-08-12T09:23:08.045Z,0.70
2022-08-12T09:25:49.914Z,0.70
2022-08-12T09:32:06.296Z,1.00
2022-08-12T09:34:31.065Z,0.95
2022-08-12T09:36:57.761Z,0.60
2022-08-12T09:40:02.131Z,0.75
2022-08-12T09:42:42.922Z,0.70
2022-08-12T09:45:24.014Z,0.60
2022-08-12T09:47:59.136Z,0.70
2022-08-12T09:50:27.201Z,0.55
2022-08-12T09:53:15.810Z,0.55
2022-08-12T09:56:39.882Z,0.90
2022-08-12T09:58:58.565Z,0.50
2022-08-12T10:01:23.222Z,0.57
2022-08-12T10:04:03.618Z,0.65
2022-08-12T10:06:36.175Z,0.60
2022-08-12T10:09:04.300Z,0.50
2022-08-12T10:12:09.798Z,0.50
2022-08-12T10:14:36.211Z,0.50
2022-08-12T10:17:03.698Z,0.47
2022-08-12T10:19:38.073Z,0.50
2022-08-12T10:22:17.339Z,0.50
2022-08-12T10:25:17.156Z,0.73
2022-08-12T10:28:04.261Z,0.40
2022-08-12T10:30:40.712Z,0.35
2022-08-12T10:33:19.124Z,0.47
2022-08-12T10:35:46.256Z,0.50
2022-08-12T10:38:39.128Z,0.60
2022-08-12T10:41:21.096Z,0.43
2022-08-12T10:43:54.960Z,0.40
2022-08-12T10:46:31.289Z,0.50
2022-08-12T10:49:06.418Z,0.30
2022-08-12T10:52:03.018Z,0.60
2022-08-12T10:54:32.509Z,0.50
2022-08-12T10:57:02.938Z,0.50
2022-08-12T11:00:03.463Z,0.50
2022-08-12T11:04:24.243Z,0.40
2022-08-12T11:07:03.666Z,0.40
2022-08-12T11:08:37.978Z,0.40
2022-08-12T11:10:42.770Z,0.40
2022-08-12T11:13:12.579Z,0.40
2022-08-12T11:16:18.931Z,0.50
2022-08-12T11:18:26.578Z,0.30
2022-08-12T11:20:57.816Z,0.38
2022-08-12T11:23:36.821Z,0.40
2022-08-12T11:26:06.535Z,0.50
2022-08-12T11:28:37.417Z,0.50
2022-08-12T11:31:12.220Z,0.50
2022-08-12T11:34:04.454Z,0.47
2022-08-12T11:36:28.316Z,0.50
2022-08-12T11:38:55.240Z,0.50
2022-08-12T11:41:30.991Z,0.30
2022-08-12T11:44:35.260Z,0.50
2022-08-12T11:46:51.347Z,0.30
2022-08-12T11:49:30.582Z,0.50
2022-08-12T11:52:01.486Z,0.50
2022-08-12T11:54:29.862Z,0.60
2022-08-12T11:57:00.273Z,0.40
2022-08-12T12:02:18.864Z,0.60
2022-08-12T12:04:53.033Z,0.50
2022-08-12T12:07:33.698Z,0.38
2022-08-12T12:10:09.809Z,0.50
2022-08-12T12:12:40.829Z,0.57
2022-08-12T12:15:09.763Z,0.65
2022-08-12T12:17:38.070Z,0.52
2022-08-12T12:20:15.006Z,0.60
2022-08-12T12:22:45.235Z,0.70
2022-08-12T12:25:12.883Z,0.77
2022-08-12T12:28:06.173Z,0.52
2022-08-12T12:30:36.416Z,0.55
2022-08-12T12:33:05.251Z,0.38
2022-08-12T12:36:06.316Z,0.38
2022-08-12T12:38:20.164Z,0.40
2022-08-12T12:40:52.195Z,0.55
2022-08-12T12:43:42.471Z,0.43
2022-08-12T12:46:08.720Z,0.60
2022-08-12T12:48:35.789Z,0.43
2022-08-12T12:51:48.345Z,0.40
2022-08-12T12:54:08.627Z,0.50
2022-08-12T12:56:38.464Z,0.60
2022-08-12T12:59:06.237Z,0.50
2022-08-12T13:01:41.961Z,0.43
2022-08-12T13:04:13.615Z,0.63
2022-08-12T13:06:41.516Z,0.60
2022-08-12T13:09:13.084Z,0.95
2022-08-12T13:11:42.201Z,0.70
2022-08-12T13:14:28.816Z,0.70
2022-08-12T13:16:58.368Z,0.50
2022-08-12T13:19:38.754Z,0.70
2022-08-12T13:22:20.017Z,0.80
2022-08-12T13:24:55.746Z,0.77
2022-08-12T13:27:28.432Z,0.63
2022-08-12T13:30:06.431Z,0.80
2022-08-12T13:32:33.901Z,0.73
2022-08-12T13:35:04.495Z,0.70
2022-08-12T13:37:55.192Z,0.63
2022-08-12T13:40:26.723Z,0.65
2022-08-12T13:42:56.065Z,0.60
2022-08-12T13:45:23.063Z,0.70
2022-08-12T13:47:55.950Z,0.55
2022-08-12T13:50:29.462Z,0.75
2022-08-12T13:53:06.283Z,0.35
2022-08-12T13:55:49.871Z,0.70
2022-08-12T13:58:26.663Z,0.60
2022-08-12T14:00:53.952Z,0.80
2022-08-12T14:03:28.353Z,0.60
2022-08-12T14:06:15.437Z,0.80
2022-08-12T14:08:42.792Z,0.60
2022-08-12T14:11:09.758Z,0.88
2022-08-12T14:14:03.522Z,0.80
2022-08-12T14:16:46.896Z,0.60
2022-08-12T14:19:22.790Z,0.70
2022-08-12T14:21:59.026Z,0.88
2022-08-12T14:24:30.897Z,0.90
2022-08-12T14:27:02.075Z,0.60
2022-08-12T14:29:55.810Z,0.80
2022-08-12T14:32:17.919Z,0.80
2022-08-12T14:34:51.453Z,0.90
2022-08-12T14:37:56.265Z,0.80
2022-08-12T14:40:05.904Z,0.73
2022-08-12T14:42:32.749Z,0.60
2022-08-12T14:45:01.262Z,0.70
2022-08-12T14:47:29.165Z,0.88
2022-08-12T14:50:34.026Z,0.73
2022-08-12T14:55:05.680Z,0.30
2022-08-12T14:58:23.119Z,0.60
2022-08-12T15:01:08.375Z,0.95
2022-08-12T15:03:53.949Z,0.75
2022-08-12T15:06:43.595Z,0.70
2022-08-12T15:09:17.046Z,0.77
2022-08-12T15:11:55.699Z,1.00
2022-08-12T15:14:30.663Z,0.60
2022-08-12T15:17:00.428Z,0.88
2022-08-12T15:20:12.169Z,0.90
2022-08-12T15:22:38.060Z,0.70
2022-08-12T15:25:07.052Z,0.90
2022-08-12T15:28:03.800Z,0.80
2022-08-12T15:30:23.004Z,0.60
2022-08-12T15:32:50.894Z,0.60
2022-08-12T15:35:17.782Z,0.80
2022-08-12T15:38:08.039Z,0.65
2022-08-12T15:40:34.895Z,0.80
2022-08-12T15:43:04.307Z,0.60
2022-08-12T15:45:37.114Z,0.68
2022-08-12T15:48:17.038Z,0.70
2022-08-12T15:50:47.307Z,0.60
2022-08-12T15:53:39.916Z,0.70
2022-08-12T15:56:12.585Z,0.73
2022-08-12T15:58:43.086Z,0.63
2022-08-12T16:01:11.899Z,0.77
2022-08-12T16:03:45.517Z,0.90
2022-08-12T16:06:50.958Z,0.80
2022-08-12T16:09:21.586Z,1.00
2022-08-12T16:11:48.775Z,0.80
2022-08-12T16:14:16.303Z,0.68
2022-08-12T16:16:48.636Z,0.88
2022-08-12T16:20:03.686Z,0.80
2022-08-12T16:22:11.419Z,0.70
2022-08-12T16:24:42.564Z,0.80
2022-08-12T16:27:09.659Z,1.00
2022-08-12T16:29:52.921Z,0.90
2022-08-12T16:32:31.199Z,0.80
2022-08-12T16:34:59.863Z,0.43
2022-08-12T16:38:24.401Z,0.82
2022-08-12T16:40:14.348Z,0.90
2022-08-12T16:42:53.852Z,0.90
2022-08-12T16:46:07.931Z,1.02
2022-08-12T16:48:34.792Z,0.75
2022-08-12T16:51:09.256Z,0.93
2022-08-12T16:53:43.410Z,0.80
2022-08-12T16:56:17.183Z,0.70
2022-08-12T16:58:44.847Z,0.85
2022-08-12T17:01:15.858Z,0.73
2022-08-12T17:03:52.586Z,0.80
2022-08-12T17:06:27.480Z,0.82
2022-08-12T17:09:02.752Z,0.70
2022-08-12T17:11:36.361Z,0.60
2022-08-12T17:14:06.264Z,0.68
2022-08-12T17:16:40.924Z,0.80
2022-08-12T17:19:09.114Z,0.98
2022-08-12T17:21:40.534Z,0.80
2022-08-12T17:24:15.895Z,0.60
2022-08-12T17:26:49.176Z,0.80
2022-08-12T17:29:32.173Z,1.00
2022-08-12T17:32:07.768Z,0.85
2022-08-12T17:34:54.668Z,0.70
2022-08-12T17:37:21.962Z,0.82
2022-08-12T17:40:16.102Z,1.00
2022-08-12T17:42:38.595Z,0.90
2022-08-12T17:45:17.736Z,1.00
2022-08-12T17:48:01.619Z,0.90
2022-08-12T17:50:39.004Z,0.75
2022-08-12T17:53:10.740Z,0.90
2022-08-12T17:55:47.611Z,0.70
2022-08-12T17:58:21.418Z,0.85
2022-08-12T18:00:51.347Z,1.00
2022-08-12T18:03:57.480Z,0.90
2022-08-12T18:06:14.137Z,0.77
2022-08-12T18:08:54.847Z,0.85
2022-08-12T18:12:04.424Z,0.80
2022-08-12T18:14:37.306Z,0.75
2022-08-12T18:17:08.157Z,0.90
2022-08-12T18:20:05.312Z,0.70
2022-08-12T18:22:30.813Z,0.85
2022-08-12T18:25:03.871Z,0.80
2022-08-12T18:27:47.094Z,0.85
2022-08-12T18:30:20.699Z,0.75
2022-08-12T18:33:05.232Z,0.90
2022-08-12T18:35:47.819Z,0.70
2022-08-12T18:38:25.319Z,0.77
2022-08-12T18:41:11.623Z,0.75
2022-08-12T18:44:00.047Z,0.80
2022-08-12T18:46:32.577Z,0.80
2022-08-12T18:49:16.918Z,0.80
2022-08-12T18:51:55.651Z,0.80
2022-08-12T18:54:41.521Z,0.90
2022-08-12T18:57:45.920Z,0.80
2022-08-12T19:00:08.659Z,1.00
2022-08-12T19:02:40.949Z,0.70
2022-08-12T19:05:11.664Z,0.60
2022-08-12T19:07:59.891Z,0.90
2022-08-12T19:10:35.136Z,0.70
2022-08-12T19:13:23.654Z,0.90
2022-08-12T19:16:01.494Z,0.98
2022-08-12T19:18:31.353Z,0.88
2022-08-12T19:21:06.426Z,0.82
2022-08-12T19:23:39.416Z,1.13
2022-08-12T19:26:10.842Z,0.82
2022-08-12T19:28:39.832Z,0.82
2022-08-12T19:31:56.859Z,0.82
2022-08-12T19:35:24.127Z,0.65
2022-08-12T19:38:03.097Z,0.73
2022-08-12T19:40:20.405Z,0.70
2022-08-12T19:43:01.135Z,0.75
2022-08-12T19:45:43.272Z,0.75
2022-08-12T19:48:19.947Z,0.70
2022-08-12T19:50:52.765Z,0.80
2022-08-12T19:53:23.481Z,0.70
2022-08-12T19:55:53.880Z,0.98
2022-08-12T19:58:21.461Z,0.80
2022-08-12T20:00:56.335Z,0.98
2022-08-12T20:03:40.445Z,0.70
2022-08-12T20:06:13.993Z,0.80
2022-08-12T20:08:48.924Z,0.80
2022-08-12T20:12:14.576Z,0.80
2022-08-12T20:14:21.066Z,0.90
2022-08-12T20:16:56.521Z,0.90
2022-08-12T20:20:01.485Z,0.70
2022-08-12T20:22:23.448Z,0.80
2022-08-12T20:24:55.101Z,0.60
2022-08-12T20:27:29.330Z,0.90
2022-08-12T20:30:12.958Z,0.70
2022-08-12T20:32:47.994Z,0.82
2022-08-12T20:35:18.362Z,0.90
2022-08-12T20:38:04.918Z,0.95
2022-08-12T20:40:39.494Z,0.68
2022-08-12T20:43:09.657Z,0.82
2022-08-12T20:45:50.440Z,0.70
2022-08-12T20:48:25.330Z,0.75
2022-08-12T20:50:54.225Z,0.82
2022-08-12T20:53:33.140Z,1.23
2022-08-12T20:56:31.000Z,0.80
2022-08-12T20:59:01.239Z,0.90
2022-08-12T21:01:28.949Z,0.82
2022-08-12T21:04:14.567Z,0.85
2022-08-12T21:06:57.410Z,0.90
2022-08-12T21:09:29.474Z,0.90
2022-08-12T21:11:59.666Z,0.98
2022-08-12T21:14:39.734Z,0.90
2022-08-12T21:17:19.386Z,1.30
2022-08-12T21:20:06.406Z,0.90
2022-08-12T21:22:43.663Z,0.77
2022-08-12T21:25:14.556Z,1.10
2022-08-12T21:27:59.175Z,0.70
2022-08-12T21:30:37.342Z,1.10
2022-08-12T21:33:14.845Z,1.10
2022-08-12T21:35:43.835Z,1.02
2022-08-12T21:38:15.642Z,0.90
2022-08-12T21:40:52.007Z,1.00
2022-08-12T21:43:19.744Z,0.98
2022-08-12T21:46:00.538Z,0.93
2022-08-12T21:48:34.110Z,0.95
2022-08-12T21:51:01.003Z,1.10
2022-08-12T21:54:07.801Z,1.02
2022-08-12T21:56:34.604Z,0.95
2022-08-12T21:59:04.646Z,0.70
2022-08-12T22:01:48.389Z,1.10
2022-08-12T22:04:35.351Z,0.93
2022-08-12T22:07:10.396Z,1.02
2022-08-12T22:09:43.466Z,1.00
2022-08-12T22:12:29.037Z,1.02
2022-08-12T22:14:55.819Z,1.10
2022-08-12T22:17:50.403Z,1.00
2022-08-12T22:20:22.051Z,0.90
2022-08-12T22:22:56.390Z,1.00
2022-08-12T22:25:30.197Z,1.05
2022-08-12T22:28:17.921Z,1.05
2022-08-12T22:31:09.672Z,1.27
2022-08-12T22:33:54.533Z,1.10
2022-08-12T22:36:29.289Z,1.20
2022-08-12T22:38:58.455Z,1.00
2022-08-12T22:41:45.785Z,1.20
2022-08-12T22:44:31.105Z,1.10
2022-08-12T22:47:54.912Z,1.10
2022-08-12T22:50:29.731Z,1.00
2022-08-12T22:53:15.723Z,0.90
2022-08-12T22:55:59.922Z,0.88
2022-08-12T22:58:31.703Z,1.10
2022-08-12T23:01:01.724Z,1.15
2022-08-12T23:03:49.155Z,1.20
2022-08-12T23:06:29.027Z,1.15
2022-08-12T23:08:58.950Z,1.10
2022-08-12T23:11:33.625Z,1.38
2022-08-12T23:14:07.597Z,1.02
2022-08-12T23:16:38.891Z,1.08
2022-08-12T23:19:22.919Z,1.42
2022-08-12T23:22:03.997Z,0.90
2022-08-12T23:24:38.693Z,1.00
2022-08-12T23:27:35.173Z,1.13
2022-08-12T23:30:19.058Z,0.93
2022-08-12T23:32:54.582Z,1.20
2022-08-12T23:35:45.489Z,1.00
2022-08-12T23:38:31.604Z,0.93
2022-08-12T23:41:03.354Z,1.13
2022-08-12T23:43:39.181Z,1.10
2022-08-12T23:46:09.766Z,1.02
2022-08-12T23:48:38.632Z,1.20
2022-08-12T23:51:22.727Z,0.90
2022-08-12T23:54:00.340Z,1.20
2022-08-12T23:56:27.334Z,1.23
2022-08-12T23:58:58.731Z,1.00
